Terminal Aerodrome Forecast
Issued by NWS Norman, OK

Home | Current Version | Previous Version | Text Only | Print | Product List | Glossary On
Versions: 1 2 3 4 5 6 7 8 9 10 11 12 13
000
FTUS44 KOUN 241738
TAFOKC
TAF
KOKC 241738Z 2418/2518 19024G34KT P6SM SCT250
     FM242200 15010KT P6SM VCSH BKN070
      TEMPO 2422/2502 VRB12G30KT -SHRA
     FM250500 33021G31KT P6SM SCT035 OVC070
     FM250800 33023KT P6SM BKN025
     FM251500 33018KT P6SM SKC=

USA.gov is the U.S. government's official web portal to all federal, state and local government web resources and services.